Time;durP1;ratioP1;P1;durP2;ratioP2;P2;SDS_P1;SDS_P2;PMS_P1;PMS_P2;Temp;Humidity;BMP_temperature;BMP_pressure;BME280_temperature;BME280_humidity;BME280_pressure;Samples;Min_cycle;Max_cycle;Signal;HPM_P1;HPM_P2
2022/10/19 00:01:01;;;;;;;5.90;5.50;;;;;;;10.17;100.00;-18062.81;5113371;28;20677;-57
2022/10/19 00:03:29;;;;;;;5.70;5.40;;;;;;;9.91;100.00;-18054.78;5113231;28;20561;-57
2022/10/19 00:05:56;;;;;;;6.17;5.50;;;;;;;9.81;100.00;-18052.34;5113222;28;20252;-58
2022/10/19 00:08:23;;;;;;;5.07;4.60;;;;;;;9.62;100.00;-17730.72;5112887;28;20187;-58
2022/10/19 00:10:50;;;;;;;5.43;5.03;;;;;;;9.66;100.00;-17414.09;5113091;28;20206;-57
2022/10/19 00:13:18;;;;;;;5.17;4.87;;;;;;;9.82;100.00;-17100.34;5113101;28;20281;-58
2022/10/19 00:15:45;;;;;;;6.93;5.97;;;;;;;9.88;100.00;-17419.19;5112710;28;20207;-58
2022/10/19 00:18:12;;;;;;;6.30;5.83;;;;;;;9.85;100.00;-18053.44;5112763;28;20198;-57
2022/10/19 00:20:39;;;;;;;6.30;6.00;;;;;;;9.99;100.00;-18058.69;5112946;28;20578;-57
2022/10/19 00:23:06;;;;;;;7.40;5.73;;;;;;;9.93;100.00;-18057.13;5112980;28;20699;-58
2022/10/19 00:25:32;;;;;;;5.77;5.27;;;;;;;9.81;100.00;-18054.34;5112841;28;20187;-57
2022/10/19 00:28:00;;;;;;;5.63;5.30;;;;;;;9.89;100.00;-18056.16;5112732;28;20198;-58
2022/10/19 00:30:29;;;;;;;5.40;5.20;;;;;;;9.73;100.00;-18052.28;5113076;28;20184;-59
2022/10/19 00:32:56;;;;;;;5.30;4.90;;;;;;;9.52;100.00;-17728.34;5112261;28;20187;-58
2022/10/19 00:35:23;;;;;;;5.83;5.43;;;;;;;9.50;100.00;-16141.28;5112780;28;20630;-58
2022/10/19 00:37:50;;;;;;;5.40;5.10;;;;;;;9.50;100.00;-15823.75;5112229;28;20210;-58
2022/10/19 00:40:17;;;;;;;5.60;5.30;;;;;;;9.36;100.00;-14868.66;5112437;28;20183;-58
2022/10/19 00:42:44;;;;;;;11.53;10.63;;;;;;;9.41;100.00;-15187.19;5112745;28;20187;-58
2022/10/19 00:45:16;;;;;;;7.37;7.00;;;;;;;9.33;100.00;-14550.75;5112762;28;20705;-58
2022/10/19 00:47:45;;;;;;;11.17;10.73;;;;;;;9.39;100.00;-15186.78;5112551;28;20644;-59
2022/10/19 00:50:16;;;;;;;16.00;15.03;;;;;;;9.49;100.00;-15188.63;5112219;28;20273;-58
2022/10/19 00:52:43;;;;;;;13.37;12.73;;;;;;;9.58;100.00;-14872.84;5112681;28;20198;-58
2022/10/19 00:55:11;;;;;;;10.03;9.30;;;;;;;9.31;100.00;-13280.31;5112490;28;20250;-57
2022/10/19 00:57:39;;;;;;;9.33;9.03;;;;;;;9.35;100.00;-13598.53;5112572;28;20651;-58
2022/10/19 01:00:08;;;;;;;19.73;18.03;;;;;;;9.42;100.00;-13917.25;5112416;28;20709;-58
2022/10/19 01:02:35;;;;;;;13.37;12.67;;;;;;;9.39;100.00;-14869.34;5112209;28;20191;-58
2022/10/19 01:05:04;;;;;;;12.03;11.27;;;;;;;9.10;100.00;-17084.25;5112202;28;20278;-58
2022/10/19 01:07:32;;;;;;;14.27;13.10;;;;;;;9.19;100.00;-18039.44;5112287;28;20229;-58
2022/10/19 01:10:00;;;;;;;21.13;19.03;;;;;;;9.12;100.00;-18037.75;5112357;28;20600;-58
2022/10/19 01:12:46;;;;;;;29.63;18.87;;;;;;;9.23;100.00;-18040.31;5112332;28;20250;-57
2022/10/19 01:15:27;;;;;;;336.60;45.03;;;;;;;9.41;100.00;-18044.78;5112169;28;20187;-57
2022/10/19 01:18:04;;;;;;;270.73;49.87;;;;;;;9.27;100.00;-18041.38;5112085;28;20560;-58
2022/10/19 01:21:01;;;;;;;327.67;54.87;;;;;;;9.49;100.00;-18046.72;5111971;28;20236;-58
2022/10/19 01:23:51;;;;;;;355.10;57.87;;;;;;;9.48;100.00;-18046.47;5103462;28;20248;-58
2022/10/19 01:26:36;;;;;;;416.63;65.87;;;;;;;9.46;100.00;-18045.97;5112025;28;20214;-57
2022/10/19 01:29:11;;;;;;;287.00;61.60;;;;;;;9.61;100.00;-18049.50;5112324;28;20191;-58
2022/10/19 01:31:47;;;;;;;409.03;71.27;;;;;;;9.61;100.00;-18049.50;5111913;28;20183;-58
2022/10/19 01:34:17;;;;;;;179.83;55.90;;;;;;;9.58;100.00;-18048.88;5111920;28;20195;-58
2022/10/19 01:36:52;;;;;;;245.13;57.60;;;;;;;9.55;100.00;-18048.16;5112008;28;20183;-58
2022/10/19 01:39:26;;;;;;;239.43;53.47;;;;;;;9.64;100.00;-18050.22;5112110;28;20629;-58
2022/10/19 01:42:02;;;;;;;118.63;47.50;;;;;;;9.32;100.00;-18042.59;5111667;28;20191;-58
2022/10/19 01:44:38;;;;;;;112.77;47.03;;;;;;;9.53;100.00;-18047.69;5114448;28;20179;-58
2022/10/19 01:47:11;;;;;;;56.10;43.60;;;;;;;9.30;100.00;-18042.00;5115683;28;20203;-58
2022/10/19 01:49:43;;;;;;;47.93;39.47;;;;;;;9.52;100.00;-18047.44;5115811;28;20203;-58
2022/10/19 01:52:14;;;;;;;37.63;33.03;;;;;;;9.59;100.00;-18049.13;5115408;28;20191;-58
2022/10/19 01:54:44;;;;;;;29.33;26.20;;;;;;;9.63;100.00;-18050.09;5115765;28;20184;-57
2022/10/19 01:57:14;;;;;;;28.67;26.00;;;;;;;9.45;100.00;-18045.75;5115354;28;20191;-58
2022/10/19 01:59:43;;;;;;;28.77;26.30;;;;;;;9.59;100.00;-18049.13;5115513;28;20274;-58
2022/10/19 02:02:13;;;;;;;28.77;26.10;;;;;;;9.52;100.00;-18047.44;5115785;28;20187;-58
2022/10/19 02:04:41;;;;;;;47.23;31.20;;;;;;;9.51;100.00;-18047.06;5115526;28;20183;-58
2022/10/19 02:07:09;;;;;;;47.40;32.93;;;;;;;9.48;100.00;-18046.47;5115471;28;20290;-58
2022/10/19 02:09:36;;;;;;;192.93;38.47;;;;;;;9.56;100.00;-18048.41;5115572;28;20188;-57
2022/10/19 02:12:08;;;;;;;272.27;37.63;;;;;;;9.57;100.00;-18048.53;5115492;28;20191;-57
2022/10/19 02:14:39;;;;;;;265.03;39.17;;;;;;;9.48;100.00;-18046.34;5115520;28;20657;-59
2022/10/19 02:17:13;;;;;;;335.30;37.87;;;;;;;9.50;100.00;-18046.97;5115223;28;20214;-58
2022/10/19 02:19:40;;;;;;;277.93;40.03;;;;;;;9.25;100.00;-18040.91;5115465;28;20195;-57
2022/10/19 02:22:07;;;;;;;239.20;38.47;;;;;;;9.13;100.00;-18038.00;5114856;28;20321;-57
2022/10/19 02:24:34;;;;;;;127.47;32.70;;;;;;;9.33;100.00;-18042.84;5115433;28;20588;-58
2022/10/19 02:27:04;;;;;;;155.23;33.37;;;;;;;9.16;100.00;-18038.84;5115131;28;20220;-58
2022/10/19 02:29:32;;;;;;;92.60;29.23;;;;;;;9.27;100.00;-18041.38;5114904;28;20227;-59
2022/10/19 02:31:59;;;;;;;59.67;29.13;;;;;;;9.27;100.00;-18041.38;5115159;28;20196;-58
2022/10/19 02:34:28;;;;;;;36.73;28.70;;;;;;;9.26;100.00;-18041.16;5114855;28;20194;-59
2022/10/19 02:36:55;;;;;;;49.40;29.53;;;;;;;9.18;100.00;-18039.22;5115200;28;20237;-59
2022/10/19 02:39:22;;;;;;;104.43;29.60;;;;;;;9.28;100.00;-18041.50;5114857;28;20187;-58
2022/10/19 02:41:55;;;;;;;83.80;30.23;;;;;;;8.93;100.00;-18033.16;5114694;28;20183;-57
2022/10/19 02:44:26;;;;;;;67.07;30.50;;;;;;;9.02;100.00;-18035.34;5097376;28;20261;-57
2022/10/19 02:46:58;;;;;;;55.63;31.43;;;;;;;9.09;100.00;-18037.03;5114615;28;20208;-58
2022/10/19 02:49:27;;;;;;;68.07;31.30;;;;;;;9.03;100.00;-18035.69;5114663;28;20199;-58
2022/10/19 02:52:00;;;;;;;69.03;33.00;;;;;;;8.80;100.00;-18030.13;5114444;28;20240;-57
2022/10/19 02:54:27;;;;;;;64.90;38.67;;;;;;;8.69;100.00;-18027.59;5114503;28;20244;-57
2022/10/19 02:56:55;;;;;;;95.40;38.20;;;;;;;8.70;100.00;-18027.81;5114283;28;20274;-58
2022/10/19 02:59:22;;;;;;;88.40;48.60;;;;;;;8.59;100.00;-18025.16;5114658;28;20630;-57
2022/10/19 03:01:49;;;;;;;128.23;61.33;;;;;;;8.66;100.00;-18026.84;5114259;28;20179;-59
2022/10/19 03:04:17;;;;;;;145.10;69.33;;;;;;;8.79;100.00;-18029.75;5114212;28;20195;-59
2022/10/19 03:06:45;;;;;;;135.87;67.27;;;;;;;8.79;100.00;-18029.75;5114109;28;20208;-59
2022/10/19 03:09:12;;;;;;;207.50;63.20;;;;;;;8.61;100.00;-18025.66;5114230;28;20183;-59
2022/10/19 03:11:39;;;;;;;159.37;60.67;;;;;;;8.73;100.00;-18028.44;5114149;28;20187;-58
2022/10/19 03:14:06;;;;;;;430.13;89.23;;;;;;;8.79;100.00;-18029.75;5114296;28;20183;-58
2022/10/19 03:16:33;;;;;;;270.53;71.97;;;;;;;8.96;100.00;-18033.88;5114010;28;20219;-58
2022/10/19 03:19:00;;;;;;;203.97;71.93;;;;;;;8.74;100.00;-18028.56;5114208;28;20210;-58
2022/10/19 03:21:27;;;;;;;373.53;95.13;;;;;;;8.99;100.00;-18034.63;5113965;28;20609;-60
2022/10/19 03:23:55;;;;;;;205.60;71.40;;;;;;;8.97;100.00;-18034.13;5114282;28;20707;-58
2022/10/19 03:26:22;;;;;;;310.83;80.07;;;;;;;8.94;100.00;-18033.41;5113973;28;20183;-58
2022/10/19 03:28:49;;;;;;;280.20;78.57;;;;;;;8.92;100.00;-18032.91;5114218;28;20193;-59
2022/10/19 03:31:16;;;;;;;289.40;81.13;;;;;;;8.87;100.00;-18031.72;5114066;28;20190;-58
2022/10/19 03:33:43;;;;;;;432.93;102.03;;;;;;;8.85;100.00;-18031.22;5114169;28;20252;-57
2022/10/19 03:36:19;;;;;;;397.50;95.03;;;;;;;8.86;100.00;-18031.47;5113563;28;20186;-60
2022/10/19 03:38:46;;;;;;;370.73;92.23;;;;;;;8.92;100.00;-18033.03;5113592;28;20175;-58
2022/10/19 03:41:15;;;;;;;454.60;106.03;;;;;;;8.89;100.00;-18032.19;5113640;28;20274;-58
2022/10/19 03:43:42;;;;;;;479.80;107.93;;;;;;;8.95;100.00;-18033.66;5113888;28;20256;-57
2022/10/19 03:46:09;;;;;;;472.67;110.67;;;;;;;8.97;100.00;-18034.13;5113735;28;20674;-58
2022/10/19 03:48:36;;;;;;;689.63;126.73;;;;;;;8.97;100.00;-18034.25;5113674;28;20668;-58
2022/10/19 03:51:05;;;;;;;324.30;86.20;;;;;;;8.96;100.00;-18033.88;5113360;28;20257;-57
2022/10/19 03:53:32;;;;;;;361.07;85.23;;;;;;;9.03;100.00;-18035.69;5113805;28;20183;-59
2022/10/19 03:56:04;;;;;;;265.50;72.73;;;;;;;8.99;100.00;-18034.72;5113194;28;20262;-58
2022/10/19 03:58:35;;;;;;;164.93;66.40;;;;;;;9.13;100.00;-18038.00;5113526;28;20487;-59
2022/10/19 04:01:06;;;;;;;149.10;59.97;;;;;;;9.03;100.00;-18035.56;5113268;28;20191;-58
2022/10/19 04:03:32;;;;;;;218.73;60.90;;;;;;;8.91;100.00;-18032.69;5113383;28;20684;-58
2022/10/19 04:06:04;;;;;;;215.90;53.33;;;;;;;8.68;100.00;-18027.22;5112770;28;20187;-58
2022/10/19 04:08:31;;;;;;;206.33;56.10;;;;;;;8.84;100.00;-18030.97;5113234;28;20665;-58
2022/10/19 04:11:01;;;;;;;173.03;50.80;;;;;;;8.98;100.00;-18034.38;5113176;28;20188;-59
2022/10/19 04:13:29;;;;;;;181.27;51.23;;;;;;;9.03;100.00;-18035.56;5112938;28;20179;-58
2022/10/19 04:15:57;;;;;;;143.07;52.50;;;;;;;9.15;100.00;-18038.59;5112998;28;20197;-58
2022/10/19 04:18:24;;;;;;;209.73;56.63;;;;;;;9.21;100.00;-18039.81;5113192;28;20180;-58
2022/10/19 04:20:56;;;;;;;180.10;55.93;;;;;;;9.15;100.00;-18038.47;5113221;28;20310;-58
2022/10/19 04:23:23;;;;;;;214.03;61.47;;;;;;;9.28;100.00;-18041.50;5112992;28;20184;-59
2022/10/19 04:25:50;;;;;;;291.77;68.47;;;;;;;9.35;100.00;-18043.31;5112661;28;20183;-58
2022/10/19 04:28:17;;;;;;;532.87;94.40;;;;;;;9.49;100.00;-18046.72;5112572;28;20210;-59
2022/10/19 04:30:44;;;;;;;429.40;95.20;;;;;;;9.50;100.00;-18046.97;5112870;28;20194;-59
2022/10/19 04:33:13;;;;;;;640.63;120.57;;;;;;;9.60;100.00;-18049.38;5112812;28;20259;-59
2022/10/19 04:35:40;;;;;;;600.40;119.93;;;;;;;9.62;100.00;-18049.75;5112661;28;20188;-58
2022/10/19 04:38:06;;;;;;;587.90;113.60;;;;;;;9.76;100.00;-18053.00;5112360;28;20274;-62
2022/10/19 04:40:35;;;;;;;603.70;113.03;;;;;;;9.51;100.00;-18047.19;5112795;28;20179;-59
2022/10/19 04:43:02;;;;;;;537.00;111.27;;;;;;;9.81;100.00;-18054.22;5112282;28;20189;-59
2022/10/19 04:45:29;;;;;;;579.87;113.70;;;;;;;9.70;100.00;-18051.56;5112580;28;20549;-60
2022/10/19 04:47:56;;;;;;;433.57;92.73;;;;;;;9.95;100.00;-18057.59;5094377;28;20222;-60
2022/10/19 04:50:25;;;;;;;318.57;81.90;;;;;;;10.00;100.00;-18058.94;5112320;28;20183;-58
2022/10/19 04:52:52;;;;;;;671.30;114.90;;;;;;;10.02;100.00;-18059.28;5112514;28;20561;-59
2022/10/19 04:55:19;;;;;;;584.10;98.30;;;;;;;10.10;100.00;-18061.34;5112317;28;20190;-58
2022/10/19 04:57:46;;;;;;;583.20;99.83;;;;;;;10.17;100.00;-18062.81;5111873;28;20198;-59
2022/10/19 05:00:15;;;;;;;453.23;89.10;;;;;;;10.17;100.00;-18062.81;5112423;28;20554;-60
2022/10/19 05:02:44;;;;;;;411.80;82.27;;;;;;;10.22;100.00;-18064.13;5112090;28;20194;-59
2022/10/19 05:05:11;;;;;;;309.43;71.47;;;;;;;10.09;100.00;-18060.97;5112083;28;20309;-60
2022/10/19 05:07:39;;;;;;;322.00;68.10;;;;;;;10.15;100.00;-18062.44;5111848;28;20214;-59
2022/10/19 05:10:08;;;;;;;323.57;67.80;;;;;;;10.10;100.00;-18061.22;5112088;28;20190;-60
2022/10/19 05:12:36;;;;;;;416.53;76.37;;;;;;;9.97;100.00;-18058.09;5111981;28;20192;-59
2022/10/19 05:15:03;;;;;;;169.43;55.70;;;;;;;9.78;100.00;-18053.59;5112026;28;20274;-53
2022/10/19 05:17:30;;;;;;;190.33;56.73;;;;;;;9.90;100.00;-18056.38;5112179;28;20205;-54
2022/10/19 05:19:57;;;;;;;201.53;53.83;;;;;;;9.78;100.00;-18053.59;5116307;28;20576;-56
2022/10/19 05:22:24;;;;;;;108.00;49.57;;;;;;;9.99;100.00;-18058.56;5116129;28;20705;-60
2022/10/19 05:24:53;;;;;;;141.37;48.70;;;;;;;9.84;100.00;-18055.06;5116215;28;20194;-59
2022/10/19 05:27:19;;;;;;;144.93;48.50;;;;;;;10.03;100.00;-18059.66;5116172;28;20197;-59
2022/10/19 05:29:46;;;;;;;148.03;44.57;;;;;;;10.06;100.00;-18060.25;5116129;28;20232;-59
2022/10/19 05:32:13;;;;;;;124.00;44.50;;;;;;;10.16;100.00;-18062.56;5116387;28;20184;-59
2022/10/19 05:34:40;;;;;;;235.07;46.47;;;;;;;10.13;100.00;-18061.81;5116009;28;20183;-59
2022/10/19 05:37:07;;;;;;;190.07;42.97;;;;;;;10.18;100.00;-18063.16;5115962;28;20192;-59
2022/10/19 05:39:34;;;;;;;224.17;45.67;;;;;;;10.28;100.00;-18065.56;5116178;28;20277;-59
2022/10/19 05:42:02;;;;;;;162.57;41.60;;;;;;;9.92;100.00;-18057.00;5115809;28;20245;-59
2022/10/19 05:44:30;;;;;;;192.70;39.37;;;;;;;10.24;100.00;-18064.59;5115811;28;20184;-58
2022/10/19 05:46:57;;;;;;;181.27;38.13;;;;;;;10.10;100.00;-18061.22;5115706;28;20253;-58
2022/10/19 05:49:24;;;;;;;127.20;37.93;;;;;;;10.23;100.00;-18064.38;5115947;28;20662;-59
2022/10/19 05:51:51;;;;;;;163.83;35.70;;;;;;;10.17;100.00;-18062.81;5115361;28;20183;-59
2022/10/19 05:54:18;;;;;;;128.37;34.87;;;;;;;10.23;100.00;-18064.25;5115547;28;20211;-60
2022/10/19 05:56:45;;;;;;;135.83;36.47;;;;;;;10.31;100.00;-18066.31;5115632;28;20221;-59
2022/10/19 05:59:17;;;;;;;146.27;38.50;;;;;;;10.17;100.00;-18062.91;5115506;28;20195;-59
2022/10/19 06:01:45;;;;;;;170.97;37.23;;;;;;;10.20;100.00;-18063.66;5115658;28;20203;-60
2022/10/19 06:04:13;;;;;;;136.27;34.80;;;;;;;10.26;100.00;-18065.09;5115673;28;20743;-59
2022/10/19 06:06:41;;;;;;;118.80;33.73;;;;;;;10.38;100.00;-18068.00;5115162;28;20187;-58
2022/10/19 06:09:09;;;;;;;68.03;31.57;;;;;;;10.51;100.00;-18071.03;5115207;28;20203;-58
2022/10/19 06:11:39;;;;;;;105.03;29.60;;;;;;;10.51;100.00;-18071.03;5115334;28;20732;-58
2022/10/19 06:14:07;;;;;;;97.60;32.80;;;;;;;10.47;100.00;-18070.16;5115012;28;20237;-59
2022/10/19 06:16:36;;;;;;;101.77;30.07;;;;;;;10.54;100.00;-18071.88;5114943;28;20301;-59
2022/10/19 06:19:04;;;;;;;54.47;30.10;;;;;;;10.38;100.00;-18068.00;5114799;28;20267;-58
2022/10/19 06:21:33;;;;;;;52.77;32.93;;;;;;;10.47;100.00;-18070.16;5115249;28;20223;-59
2022/10/19 06:24:02;;;;;;;74.77;34.27;;;;;;;10.48;100.00;-18070.41;5115342;28;20183;-59
2022/10/19 06:26:30;;;;;;;79.10;32.43;;;;;;;10.81;100.00;-18078.25;5114865;28;20183;-58
2022/10/19 06:29:01;;;;;;;52.13;33.13;;;;;;;10.96;100.00;-18081.75;5114443;28;20218;-58
2022/10/19 06:31:28;;;;;;;79.70;35.90;;;;;;;10.98;100.00;-18082.38;5114345;28;20195;-58
2022/10/19 06:33:56;;;;;;;63.73;36.33;;;;;;;10.85;100.00;-18077.38;5099395;28;20209;-58
2022/10/19 06:36:26;;;;;;;76.20;36.23;;;;;;;11.12;100.00;-18085.63;5094492;28;20623;-59
2022/10/19 06:38:53;;;;;;;109.77;33.70;;;;;;;11.29;100.00;-18089.72;5095299;28;20184;-60
2022/10/19 06:41:21;;;;;;;65.70;32.77;;;;;;;11.40;100.00;-18092.38;5094229;28;20188;-59
2022/10/19 06:43:52;;;;;;;82.70;32.90;;;;;;;11.61;100.00;-18095.34;5094575;28;20222;-58
2022/10/19 06:46:22;;;;;;;88.03;32.83;;;;;;;11.65;100.00;-18096.31;5094083;28;20184;-59
2022/10/19 06:48:53;;;;;;;59.03;29.40;;;;;;;11.60;100.00;-18095.22;5094328;28;20574;-59
2022/10/19 06:51:22;;;;;;;73.37;28.53;;;;;;;11.46;100.00;-18091.97;5094770;28;20223;-58
2022/10/19 06:53:49;;;;;;;45.13;27.53;;;;;;;11.59;100.00;-18096.72;5094418;28;20238;-58
2022/10/19 06:56:16;;;;;;;83.47;26.37;;;;;;;11.69;100.00;-18099.16;5094074;28;20198;-58
2022/10/19 06:58:43;;;;;;;68.97;24.53;;;;;;;11.88;100.00;-18103.75;5094537;28;20180;-58
2022/10/19 07:01:11;;;;;;;34.47;22.80;;;;;;;12.02;100.00;-18107.09;5094096;28;20190;-60
2022/10/19 07:03:38;;;;;;;44.27;23.57;;;;;;;11.95;100.00;-18105.41;5094277;28;20258;-58
2022/10/19 07:06:07;;;;;;;37.33;20.60;;;;;;;11.88;100.00;-18103.84;5094459;28;20190;-57
2022/10/19 07:08:37;;;;;;;24.17;18.93;;;;;;;11.94;100.00;-18105.06;5093543;28;20670;-57
2022/10/19 07:11:07;;;;;;;19.47;17.50;;;;;;;12.04;100.00;-18107.59;5094508;28;20607;-57
2022/10/19 07:13:35;;;;;;;24.17;16.80;;;;;;;12.13;100.00;-18109.75;5094103;28;20184;-58
2022/10/19 07:16:05;;;;;;;22.27;17.00;;;;;;;12.33;100.00;-18114.59;5093612;28;20279;-58
2022/10/19 07:18:33;;;;;;;22.50;15.53;;;;;;;12.38;100.00;-18115.56;5094077;28;20177;-59
2022/10/19 07:21:07;;;;;;;19.70;15.60;;;;;;;12.30;100.00;-18113.88;5101297;28;20227;-59
2022/10/19 07:23:38;;;;;;;26.67;16.10;;;;;;;12.52;100.00;-18118.94;5126507;27;20188;-57
2022/10/19 07:26:06;;;;;;;19.43;16.20;;;;;;;12.65;100.00;-18122.06;5134892;27;20245;-56
2022/10/19 07:28:35;;;;;;;20.00;18.00;;;;;;;12.77;100.00;-18124.94;5134871;27;20721;-57
2022/10/19 07:31:06;;;;;;;25.80;19.43;;;;;;;12.85;100.00;-18126.88;5134635;27;20675;-58
2022/10/19 07:33:33;;;;;;;26.90;20.10;;;;;;;12.99;100.00;-18130.13;5134344;27;20179;-57
2022/10/19 07:36:01;;;;;;;29.73;20.77;;;;;;;12.97;100.00;-18127.78;5134024;27;20210;-57
2022/10/19 07:38:28;;;;;;;26.97;20.37;;;;;;;13.04;100.00;-17810.56;5116287;27;20194;-57
2022/10/19 07:41:05;;;;;;;40.73;21.67;;;;;;;13.11;100.00;-17493.00;5133867;27;20179;-56
2022/10/19 07:43:32;;;;;;;30.47;21.47;;;;;;;13.26;100.00;-14942.03;5130707;27;20252;-57
2022/10/19 07:46:04;;;;;;;34.30;23.07;;;;;;;13.21;100.00;-13663.09;5134477;27;20251;-58
2022/10/19 07:48:32;;;;;;;45.10;25.00;;;;;;;13.45;100.00;-13667.03;5115410;27;20225;-57
2022/10/19 07:51:01;;;;;;;42.40;26.90;;;;;;;13.51;100.00;-13028.59;5134638;27;20298;-56
2022/10/19 07:53:29;;;;;;;39.40;24.43;;;;;;;13.24;100.00;-12704.84;5133736;27;20561;-57
2022/10/19 07:55:56;;;;;;;44.93;24.13;;;;;;;13.52;100.00;-12069.41;5133659;27;20187;-57
2022/10/19 07:58:24;;;;;;;39.07;24.83;;;;;;;13.41;100.00;-8548.09;5127225;27;20195;-58
2022/10/19 08:00:51;;;;;;;40.43;24.70;;;;;;;13.93;100.00;-7591.13;5133782;27;20285;-56
2022/10/19 08:03:18;;;;;;;40.37;25.17;;;;;;;14.25;100.00;-5026.97;5133460;27;20270;-56
2022/10/19 08:05:45;;;;;;;42.27;24.63;;;;;;;15.26;100.00;2693.97;5133964;27;20621;-57
2022/10/19 08:08:12;;;;;;;35.20;24.00;;;;;;;16.26;100.00;32853.81;5133974;27;20273;-57
2022/10/19 08:10:39;;;;;;;27.50;22.67;;;;;;;17.26;100.00;89487.88;5133900;27;20648;-58
2022/10/19 08:13:06;;;;;;;25.13;19.83;;;;;;;18.91;100.00;150791.09;5133808;27;20705;-58
2022/10/19 08:15:34;;;;;;;27.47;22.17;;;;;;;19.69;100.00;150985.84;5133482;27;20204;-58
2022/10/19 08:18:01;;;;;;;35.77;22.87;;;;;;;21.50;100.00;151443.16;5133882;27;20573;-58
2022/10/19 08:20:28;;;;;;;40.75;23.73;;;;;;;22.35;100.00;151656.09;5133564;27;20241;-57
2022/10/19 08:22:55;;;;;;;36.08;22.75;;;;;;;23.73;100.00;152005.72;5133404;27;20190;-57
2022/10/19 08:25:22;;;;;;;40.55;25.60;;;;;;;24.12;100.00;152105.31;5115545;27;20183;-58
2022/10/19 08:27:49;;;;;;;47.58;26.60;;;;;;;24.44;100.00;152184.53;5115273;27;20266;-58
2022/10/19 08:30:16;;;;;;;49.33;25.70;;;;;;;25.57;100.00;152470.75;5133050;27;20218;-62
2022/10/19 08:32:44;;;;;;;37.72;24.02;;;;;;;26.19;100.00;152627.97;5132596;27;20281;-57
2022/10/19 08:35:11;;;;;;;47.65;23.10;;;;;;;26.20;95.74;152629.28;5132563;27;20189;-58
2022/10/19 08:37:38;;;;;;;41.08;23.90;;;;;;;26.09;93.91;152602.44;5112886;28;20198;-58
2022/10/19 08:40:08;;;;;;;40.40;24.17;;;;;;;26.63;89.40;152739.25;5112742;28;20179;-59
2022/10/19 08:42:46;;;;;;;52.70;25.38;;;;;;;26.71;92.06;152758.44;5113176;28;20188;-59
2022/10/19 08:45:38;;;;;;;49.17;25.65;;;;;;;27.25;83.13;152895.34;5112269;28;20183;-60
2022/10/19 08:48:23;;;;;;;47.45;25.23;;;;;;;27.12;83.42;152863.34;5112298;28;20304;-58
2022/10/19 08:50:51;;;;;;;44.63;24.08;;;;;;;26.83;86.39;152790.41;5112744;28;20596;-58
2022/10/19 08:53:22;;;;;;;33.33;20.20;;;;;;;26.87;88.13;152798.13;5130410;27;20745;-57
2022/10/19 08:56:01;;;;;;;23.65;17.15;;;;;;;28.52;76.20;153216.66;5131502;27;20598;-59
2022/10/19 08:58:48;;;;;;;22.70;17.40;;;;;;;28.92;70.40;153319.16;5132663;27;20204;-58
2022/10/19 09:01:27;;;;;;;16.23;13.63;;;;;;;28.39;72.09;153183.41;5133031;27;20186;-57
2022/10/19 09:04:02;;;;;;;14.15;13.02;;;;;;;29.61;65.80;153493.41;5132986;27;20188;-58
2022/10/19 09:06:35;;;;;;;18.67;13.85;;;;;;;29.57;62.95;153481.88;5132783;27;20615;-57
2022/10/19 09:09:03;;;;;;;15.27;13.48;;;;;;;30.26;60.57;153658.72;5132742;27;20198;-58
2022/10/19 09:11:35;;;;;;;16.17;14.68;;;;;;;30.22;58.27;153648.47;5132443;27;20213;-57
2022/10/19 09:14:11;;;;;;;19.73;17.60;;;;;;;31.08;56.56;153865.25;5132252;28;20269;-57
2022/10/19 09:16:38;;;;;;;21.52;15.43;;;;;;;31.77;53.00;154041.00;5132681;28;20227;-58
2022/10/19 09:19:15;;;;;;;20.50;16.05;;;;;;;31.89;50.34;154071.78;5132735;28;20178;-58
2022/10/19 09:21:48;;;;;;;20.48;16.98;;;;;;;32.06;51.56;154115.41;5132129;28;20243;-58
2022/10/19 09:24:27;;;;;;;21.27;14.57;;;;;;;33.21;47.34;154406.91;5133350;28;20502;-57
2022/10/19 09:26:58;;;;;;;20.40;14.45;;;;;;;33.24;46.46;154414.59;5132744;28;20174;-58
2022/10/19 09:29:29;;;;;;;12.95;8.50;;;;;;;33.29;45.35;154426.16;5132596;28;20256;-58
2022/10/19 09:31:59;;;;;;;12.40;9.40;;;;;;;33.05;45.03;154367.06;5132899;28;20544;-56
2022/10/19 09:34:34;;;;;;;7.40;6.70;;;;;;;32.33;44.59;154182.19;5132712;28;20228;-58
2022/10/19 09:37:02;;;;;;;5.97;5.70;;;;;;;30.13;49.97;153625.41;5132359;28;20193;-57
2022/10/19 09:39:30;;;;;;;7.07;6.45;;;;;;;30.27;50.18;153661.31;5132016;28;20189;-59
2022/10/19 09:41:59;;;;;;;6.57;6.07;;;;;;;30.66;50.05;153758.78;5132644;28;20317;-58
2022/10/19 09:44:27;;;;;;;7.22;6.43;;;;;;;30.69;49.50;153767.75;5132392;28;20190;-59
2022/10/19 09:47:02;;;;;;;7.05;5.95;;;;;;;31.12;47.73;153876.78;5132586;28;20208;-57
2022/10/19 09:49:42;;;;;;;6.47;5.90;;;;;;;31.04;47.91;153854.97;5132020;28;20212;-57
2022/10/19 09:52:34;;;;;;;5.88;5.47;;;;;;;30.44;48.94;153703.66;5132350;28;20196;-58
2022/10/19 09:55:03;;;;;;;5.78;3.75;;;;;;;29.46;46.78;153456.25;5132198;28;20207;-56
2022/10/19 09:57:30;;;;;;;4.00;3.80;;;;;;;29.38;48.03;153435.75;5132101;28;20193;-58
2022/10/19 09:59:57;;;;;;;4.28;3.97;;;;;;;28.28;52.04;153156.50;5132467;28;20205;-58
2022/10/19 10:02:30;;;;;;;5.43;4.95;;;;;;;28.71;51.99;153265.38;5132342;28;20270;-57
2022/10/19 10:05:05;;;;;;;4.70;4.47;;;;;;;29.15;50.57;153375.53;5134191;27;20626;-58
2022/10/19 10:07:36;;;;;;;3.95;3.63;;;;;;;30.31;47.43;153671.56;5135903;27;20217;-57
2022/10/19 10:10:10;;;;;;;6.53;3.17;;;;;;;31.40;41.05;153946.06;5136130;27;20753;-58
2022/10/19 10:12:39;;;;;;;3.45;2.80;;;;;;;32.27;37.07;154166.78;5135707;27;20235;-58
2022/10/19 10:15:08;;;;;;;6.70;2.55;;;;;;;32.73;37.54;154283.59;5136046;27;20544;-58
2022/10/19 10:17:36;;;;;;;4.63;2.83;;;;;;;33.04;37.44;154364.50;5135643;27;20187;-57
2022/10/19 10:20:26;;;;;;;4.07;3.10;;;;;;;33.19;36.53;154400.44;5135895;27;20659;-57
2022/10/19 10:22:58;;;;;;;12.15;3.20;;;;;;;33.02;37.93;154358.03;5135382;27;20195;-57
2022/10/19 10:25:30;;;;;;;11.32;3.92;;;;;;;31.67;40.06;154015.34;5135772;27;20553;-58
2022/10/19 10:28:01;;;;;;;3.90;3.40;;;;;;;32.10;38.88;154125.72;5136212;27;20193;-58
2022/10/19 10:30:34;;;;;;;7.13;3.00;;;;;;;32.01;39.21;154102.56;5135823;27;20263;-56
2022/10/19 10:33:02;;;;;;;3.22;2.95;;;;;;;31.99;38.96;154096.19;5135155;27;20258;-57
2022/10/19 10:35:34;;;;;;;4.07;2.83;;;;;;;32.45;38.26;154214.28;5135762;27;20195;-56
2022/10/19 10:38:07;;;;;;;4.50;3.10;;;;;;;32.39;37.40;154197.56;5135153;27;20186;-57
2022/10/19 10:40:34;;;;;;;4.68;2.80;;;;;;;32.24;37.44;154160.38;5135388;27;20617;-57
2022/10/19 10:43:07;;;;;;;3.67;3.45;;;;;;;32.30;37.58;154174.47;5135489;27;20278;-56
2022/10/19 10:45:39;;;;;;;10.45;3.00;;;;;;;31.80;38.51;154047.41;5134876;27;20216;-58
2022/10/19 10:48:23;;;;;;;3.15;2.88;;;;;;;32.39;36.81;154198.84;5134319;27;20278;-57
2022/10/19 10:50:52;;;;;;;7.28;3.00;;;;;;;33.39;35.75;154453.13;5135119;27;20293;-56
2022/10/19 10:53:33;;;;;;;6.40;2.97;;;;;;;34.73;33.74;154793.66;5135570;27;20194;-56
2022/10/19 10:56:00;;;;;;;3.30;3.10;;;;;;;35.81;32.23;155066.25;5135778;27;20270;-58
2022/10/19 10:58:37;;;;;;;3.45;3.20;;;;;;;36.96;30.03;155359.56;5135342;27;20278;-57
2022/10/19 11:01:10;;;;;;;2.50;2.40;;;;;;;36.13;30.59;155148.56;5135365;27;20642;-58
2022/10/19 11:03:40;;;;;;;5.15;2.80;;;;;;;33.62;33.30;154510.88;5134704;27;20219;-57
2022/10/19 11:06:10;;;;;;;7.55;3.00;;;;;;;33.24;33.13;154414.59;5134804;27;20187;-57
2022/10/19 11:08:48;;;;;;;4.03;3.08;;;;;;;30.52;36.92;153724.16;5135203;27;20617;-56
2022/10/19 11:11:19;;;;;;;3.60;2.90;;;;;;;28.46;41.53;153201.31;5135546;27;20617;-56
2022/10/19 11:13:52;;;;;;;5.40;3.28;;;;;;;27.77;43.85;153025.91;5134918;27;20187;-56
2022/10/19 11:16:24;;;;;;;7.10;2.90;;;;;;;26.93;48.21;152814.78;5134650;27;20218;-56
2022/10/19 11:18:55;;;;;;;4.15;2.83;;;;;;;25.80;50.34;152529.53;5135032;27;20218;-57